Norrland — C4KF2 — position and weather

sailwx.info

Track history (hours):
 
Tides and Currents Weather Stations Pressure Air Temp Water Temp Dewpoint Dewpoint Depression Visibility Wind Speed Wind Dir Waves Ship Positions

Norrland

Last reported at 2017-Apr-26 20:22 UTC. Time now 2017-Apr-27 18:53 UTC.
Position N 36°58' E 001°55'.

Length 118 m; draft 4.4 m.

Type: Cargo ship. MMSI: 212521000.

Date/timePositionNaut miles runAvg speedWind from/ knotsBaromVisibWave heightAir tempDewpointWater temp
2017-Apr-26 20:22N 36°58' E 001°55'4 9.9
2017-Apr-26 20:00N 36°59' E 001°59'122 9.5
2017-Apr-26 07:09N 37°15' E 004°31'211.2
2017-Apr-26 07:00N 37°15' E 004°33'711.3
2017-Apr-26 06:23N 37°16' E 004°42'813.4
2017-Apr-26 05:49N 37°16' E 004°51'912.7
2017-Apr-26 05:05N 37°16' E 005°03'2911.1
2017-Apr-26 02:30N 37°17' E 005°39'510.9
2017-Apr-26 02:00N 37°17' E 005°46'710.5
2017-Apr-26 01:22N 37°17' E 005°54'410.2
2017-Apr-26 01:00N 37°17' E 005°59'510.4
2017-Apr-26 00:30N 37°17' E 006°05'510.4
2017-Apr-25 23:59N 37°17' E 006°12'1110.7
2017-Apr-25 22:54N 37°17' E 006°27'510.7
2017-Apr-25 22:29N 37°17' E 006°32'610.6
2017-Apr-25 21:57N 37°16' E 006°39'3411.1
2017-Apr-25 18:53N 37°12' E 007°21'512.0
2017-Apr-25 18:27N 37°10' E 007°28'23 1.5
2017-Apr-25 03:20N 36°56' E 007°49'0 0.0
2017-Apr-25 02:59N 36°56' E 007°50'0 0.0
2017-Apr-25 02:11N 36°56' E 007°49'0 0.0
2017-Apr-25 01:59N 36°56' E 007°49'  
2017-Apr-20 00:20N 43°21' E 004°58'6 0.3
2017-Apr-19 05:24N 43°26' E 004°53'0 0.0
2017-Apr-18 19:27N 43°26' E 004°53'0 0.0
2017-Apr-18 19:00N 43°26' E 004°53'0 0.0
2017-Apr-18 15:24N 43°26' E 004°53'0 0.0
2017-Apr-18 14:54N 43°26' E 004°53'0 0.0
2017-Apr-18 14:23N 43°26' E 004°53'0 0.1
2017-Apr-18 13:30N 43°26' E 004°53'2 2.7
2017-Apr-18 12:55N 43°24' E 004°55'0 0.1
2017-Apr-18 12:24N 43°24' E 004°55'0 0.1
2017-Apr-18 12:00N 43°24' E 004°55'0 0.0
2017-Apr-18 11:30N 43°24' E 004°55'0 0.0
2017-Apr-18 11:00N 43°24' E 004°55'0 0.0
2017-Apr-18 10:30N 43°24' E 004°55'0 0.0
2017-Apr-18 10:00N 43°24' E 004°55'0 0.0
2017-Apr-18 09:20N 43°24' E 004°55'0 0.0
2017-Apr-18 08:59N 43°24' E 004°55'1 1.2
2017-Apr-18 08:30N 43°24' E 004°56'4 7.4
2017-Apr-18 08:00N 43°21' E 004°58'5 9.1
2017-Apr-18 07:25N 43°16' E 005°01'5 9.6
2017-Apr-18 06:56N 43°12' E 005°03'27 9.5
2017-Apr-18 04:06N 42°49' E 004°42'6410.5
2017-Apr-17 21:59N 41°59' E 003°49'611.6
2017-Apr-17 21:30N 41°54' E 003°44'1211.9
2017-Apr-17 20:28N 41°45' E 003°34'611.8
2017-Apr-17 20:00N 41°40' E 003°29'1311.3
2017-Apr-17 18:53N 41°30' E 003°19'911.2
2017-Apr-17 18:06N 41°23' E 003°12'211.3
2017-Apr-17 17:58N 41°22' E 003°11'511.2
2017-Apr-17 17:30N 41°18' E 003°06'611.0
2017-Apr-17 17:00N 41°14' E 003°02'611.2
2017-Apr-17 16:29N 41°09' E 002°57'711.5
2017-Apr-17 15:52N 41°03' E 002°52'411.7
2017-Apr-17 15:30N 40°60' E 002°49'611.8
2017-Apr-17 15:00N 40°55' E 002°44'1211.5
2017-Apr-17 14:00N 40°46' E 002°35'611.6
2017-Apr-17 13:30N 40°42' E 002°29'612.0
2017-Apr-17 13:00N 40°37' E 002°24'611.9
2017-Apr-17 12:30N 40°32' E 002°19'611.8
2017-Apr-17 12:00N 40°28' E 002°15'611.6
2017-Apr-17 11:30N 40°23' E 002°10'611.5
2017-Apr-17 11:00N 40°19' E 002°05'611.5
2017-Apr-17 10:30N 40°14' E 002°01'611.7
2017-Apr-17 10:00N 40°09' E 001°56'611.7
2017-Apr-17 09:30N 40°05' E 001°51'611.7
2017-Apr-17 09:00N 40°00' E 001°47'611.4
2017-Apr-17 08:30N 39°56' E 001°42'611.4
2017-Apr-17 08:00N 39°51' E 001°38'611.6
2017-Apr-17 07:30N 39°47' E 001°33'611.6
2017-Apr-17 07:00N 39°42' E 001°28'611.7
2017-Apr-17 06:30N 39°37' E 001°24'711.8
2017-Apr-17 05:56N 39°32' E 001°18'511.8
2017-Apr-17 05:30N 39°28' E 001°14'612.0
2017-Apr-17 05:00N 39°23' E 001°09'612.0
2017-Apr-17 04:30N 39°19' E 001°05'  
Track history (hours):
 
Tides and Currents Weather Stations Pressure Air Temp Water Temp Dewpoint Dewpoint Depression Visibility Wind Speed Wind Dir Waves Ship Positions

Norrland

Last reported at 2017-Apr-26 20:22 UTC. Time now 2017-Apr-27 18:53 UTC.
Position N 36°58' E 001°55'.

Length 118 m; draft 4.4 m.

Type: Cargo ship. MMSI: 212521000.

Date/timePositionNaut miles runAvg speedWind from/ knotsBaromVisibWave heightAir tempDewpointWater temp
2017-Apr-26 20:22N 36°58' E 001°55'4 9.9
2017-Apr-26 20:00N 36°59' E 001°59'122 9.5
2017-Apr-26 07:09N 37°15' E 004°31'211.2
2017-Apr-26 07:00N 37°15' E 004°33'711.3
2017-Apr-26 06:23N 37°16' E 004°42'813.4
2017-Apr-26 05:49N 37°16' E 004°51'912.7
2017-Apr-26 05:05N 37°16' E 005°03'2911.1
2017-Apr-26 02:30N 37°17' E 005°39'510.9
2017-Apr-26 02:00N 37°17' E 005°46'710.5
2017-Apr-26 01:22N 37°17' E 005°54'410.2
2017-Apr-26 01:00N 37°17' E 005°59'510.4
2017-Apr-26 00:30N 37°17' E 006°05'510.4
2017-Apr-25 23:59N 37°17' E 006°12'1110.7
2017-Apr-25 22:54N 37°17' E 006°27'510.7
2017-Apr-25 22:29N 37°17' E 006°32'610.6
2017-Apr-25 21:57N 37°16' E 006°39'3411.1
2017-Apr-25 18:53N 37°12' E 007°21'512.0
2017-Apr-25 18:27N 37°10' E 007°28'23 1.5
2017-Apr-25 03:20N 36°56' E 007°49'0 0.0
2017-Apr-25 02:59N 36°56' E 007°50'0 0.0
2017-Apr-25 02:11N 36°56' E 007°49'0 0.0
2017-Apr-25 01:59N 36°56' E 007°49'  
2017-Apr-20 00:20N 43°21' E 004°58'6 0.3
2017-Apr-19 05:24N 43°26' E 004°53'0 0.0
2017-Apr-18 19:27N 43°26' E 004°53'0 0.0
2017-Apr-18 19:00N 43°26' E 004°53'0 0.0
2017-Apr-18 15:24N 43°26' E 004°53'0 0.0
2017-Apr-18 14:54N 43°26' E 004°53'0 0.0
2017-Apr-18 14:23N 43°26' E 004°53'0 0.1
2017-Apr-18 13:30N 43°26' E 004°53'2 2.7
2017-Apr-18 12:55N 43°24' E 004°55'0 0.1
2017-Apr-18 12:24N 43°24' E 004°55'0 0.1
2017-Apr-18 12:00N 43°24' E 004°55'0 0.0
2017-Apr-18 11:30N 43°24' E 004°55'0 0.0
2017-Apr-18 11:00N 43°24' E 004°55'0 0.0
2017-Apr-18 10:30N 43°24' E 004°55'0 0.0
2017-Apr-18 10:00N 43°24' E 004°55'0 0.0
2017-Apr-18 09:20N 43°24' E 004°55'0 0.0
2017-Apr-18 08:59N 43°24' E 004°55'1 1.2
2017-Apr-18 08:30N 43°24' E 004°56'4 7.4
2017-Apr-18 08:00N 43°21' E 004°58'5 9.1
2017-Apr-18 07:25N 43°16' E 005°01'5 9.6
2017-Apr-18 06:56N 43°12' E 005°03'27 9.5
2017-Apr-18 04:06N 42°49' E 004°42'6410.5
2017-Apr-17 21:59N 41°59' E 003°49'611.6
2017-Apr-17 21:30N 41°54' E 003°44'1211.9
2017-Apr-17 20:28N 41°45' E 003°34'611.8
2017-Apr-17 20:00N 41°40' E 003°29'1311.3
2017-Apr-17 18:53N 41°30' E 003°19'911.2
2017-Apr-17 18:06N 41°23' E 003°12'211.3
2017-Apr-17 17:58N 41°22' E 003°11'511.2
2017-Apr-17 17:30N 41°18' E 003°06'611.0
2017-Apr-17 17:00N 41°14' E 003°02'611.2
2017-Apr-17 16:29N 41°09' E 002°57'711.5
2017-Apr-17 15:52N 41°03' E 002°52'411.7
2017-Apr-17 15:30N 40°60' E 002°49'611.8
2017-Apr-17 15:00N 40°55' E 002°44'1211.5
2017-Apr-17 14:00N 40°46' E 002°35'611.6
2017-Apr-17 13:30N 40°42' E 002°29'612.0
2017-Apr-17 13:00N 40°37' E 002°24'611.9
2017-Apr-17 12:30N 40°32' E 002°19'611.8
2017-Apr-17 12:00N 40°28' E 002°15'611.6
2017-Apr-17 11:30N 40°23' E 002°10'611.5
2017-Apr-17 11:00N 40°19' E 002°05'611.5
2017-Apr-17 10:30N 40°14' E 002°01'611.7
2017-Apr-17 10:00N 40°09' E 001°56'611.7
2017-Apr-17 09:30N 40°05' E 001°51'611.7
2017-Apr-17 09:00N 40°00' E 001°47'611.4
2017-Apr-17 08:30N 39°56' E 001°42'611.4
2017-Apr-17 08:00N 39°51' E 001°38'611.6
2017-Apr-17 07:30N 39°47' E 001°33'611.6
2017-Apr-17 07:00N 39°42' E 001°28'611.7
2017-Apr-17 06:30N 39°37' E 001°24'711.8
2017-Apr-17 05:56N 39°32' E 001°18'511.8
2017-Apr-17 05:30N 39°28' E 001°14'612.0
2017-Apr-17 05:00N 39°23' E 001°09'612.0
2017-Apr-17 04:30N 39°19' E 001°05'  

Dump ship's entire track history